createdAt,value
2022-12-17T00:02:14.229Z,24.35
2022-12-17T00:04:59.919Z,26.30
2022-12-17T00:07:46.822Z,25.02
2022-12-17T00:10:32.430Z,24.85
2022-12-17T00:13:17.999Z,25.52
2022-12-17T00:16:09.606Z,25.77
2022-12-17T00:18:54.906Z,25.75
2022-12-17T00:21:41.845Z,26.13
2022-12-17T00:24:28.604Z,26.02
2022-12-17T00:27:22.570Z,27.02
2022-12-17T00:30:08.103Z,26.27
2022-12-17T00:32:49.957Z,25.52
2022-12-17T00:35:35.596Z,26.80
2022-12-17T00:38:21.137Z,27.95
2022-12-17T00:41:10.941Z,25.85
2022-12-17T00:43:57.035Z,26.75
2022-12-17T00:46:42.627Z,26.23
2022-12-17T00:49:27.861Z,26.02
2022-12-17T00:52:13.531Z,25.98
2022-12-17T00:54:58.248Z,25.48
2022-12-17T00:57:45.194Z,27.65
2022-12-17T01:00:31.327Z,29.25
2022-12-17T01:03:26.753Z,27.52
2022-12-17T01:06:12.795Z,26.02
2022-12-17T01:08:58.380Z,27.20
2022-12-17T01:11:44.062Z,27.63
2022-12-17T01:14:31.009Z,26.60
2022-12-17T01:17:16.558Z,26.48
2022-12-17T01:20:02.207Z,26.73
2022-12-17T01:22:47.742Z,25.08
2022-12-17T01:25:33.447Z,25.65
2022-12-17T01:28:18.963Z,25.38
2022-12-17T01:31:05.559Z,26.98
2022-12-17T01:33:51.182Z,25.30
2022-12-17T01:36:36.801Z,27.20
2022-12-17T01:39:22.206Z,24.60
2022-12-17T01:42:07.882Z,26.20
2022-12-17T01:45:13.025Z,27.38
2022-12-17T01:48:03.344Z,28.10
2022-12-17T01:50:48.180Z,26.63
2022-12-17T01:53:36.205Z,27.42
2022-12-17T01:59:08.520Z,24.42
2022-12-17T02:01:54.332Z,24.77
2022-12-17T02:04:41.270Z,26.80
2022-12-17T02:07:47.549Z,26.30
2022-12-17T02:10:41.769Z,23.67
2022-12-17T02:13:34.267Z,24.48
2022-12-17T02:16:29.026Z,24.50
2022-12-17T02:19:19.486Z,25.30
2022-12-17T02:22:10.307Z,27.55
2022-12-17T02:25:02.977Z,25.90
2022-12-17T02:27:50.476Z,23.55
2022-12-17T02:30:36.256Z,25.45
2022-12-17T02:33:22.328Z,24.23
2022-12-17T02:36:11.828Z,25.00
2022-12-17T02:38:57.415Z,23.83
2022-12-17T02:41:46.949Z,23.60
2022-12-17T02:44:36.767Z,25.73
2022-12-17T02:47:25.833Z,25.48
2022-12-17T02:50:11.475Z,25.08
2022-12-17T02:53:00.111Z,25.70
2022-12-17T02:55:46.064Z,25.48
2022-12-17T02:58:31.797Z,25.65
2022-12-17T03:01:18.699Z,23.73
2022-12-17T03:04:04.545Z,24.58
2022-12-17T03:06:50.159Z,23.52
2022-12-17T03:09:35.782Z,23.20
2022-12-17T03:12:21.433Z,23.50
2022-12-17T03:15:07.145Z,23.98
2022-12-17T03:17:53.816Z,25.33
2022-12-17T03:20:39.411Z,23.90
2022-12-17T03:23:27.066Z,23.17
2022-12-17T03:26:12.713Z,25.17
2022-12-17T03:28:58.379Z,24.55
2022-12-17T03:31:43.967Z,24.98
2022-12-17T03:34:30.907Z,24.30
2022-12-17T03:37:16.550Z,23.88
2022-12-17T03:40:04.374Z,23.13
2022-12-17T03:42:50.012Z,25.52
2022-12-17T03:45:47.038Z,25.42
2022-12-17T03:48:33.717Z,25.85
2022-12-17T03:51:21.219Z,24.13
2022-12-17T03:54:07.407Z,24.38
2022-12-17T03:56:53.252Z,24.08
2022-12-17T03:59:38.863Z,22.65
2022-12-17T04:02:24.558Z,22.25
2022-12-17T04:05:12.768Z,24.38
2022-12-17T04:08:02.179Z,23.25
2022-12-17T04:10:47.772Z,23.70
2022-12-17T04:13:38.832Z,24.00
2022-12-17T04:16:26.121Z,23.48
2022-12-17T04:19:11.550Z,23.38
2022-12-17T04:21:57.116Z,21.00
2022-12-17T04:24:44.116Z,23.30
2022-12-17T04:27:29.856Z,20.77
2022-12-17T04:30:15.381Z,21.88
2022-12-17T04:33:00.915Z,23.90
2022-12-17T04:35:46.488Z,23.67
2022-12-17T04:38:46.612Z,20.70
2022-12-17T04:41:33.796Z,24.00
2022-12-17T04:44:19.021Z,21.37
2022-12-17T04:47:04.662Z,21.00
2022-12-17T04:49:50.038Z,21.83
2022-12-17T04:52:35.622Z,22.33
2022-12-17T04:55:21.165Z,23.33
2022-12-17T04:58:08.135Z,21.85
2022-12-17T05:00:55.981Z,22.35
2022-12-17T05:03:41.966Z,21.05
2022-12-17T05:06:27.796Z,21.75
2022-12-17T05:09:13.406Z,21.73
2022-12-17T05:11:58.953Z,21.70
2022-12-17T05:14:45.802Z,22.17
2022-12-17T05:17:31.466Z,22.73
2022-12-17T05:20:16.957Z,22.92
2022-12-17T05:23:02.509Z,22.88
2022-12-17T05:25:48.088Z,24.25
2022-12-17T05:28:33.709Z,22.75
2022-12-17T05:31:20.469Z,21.20
2022-12-17T05:34:05.828Z,21.50
2022-12-17T05:36:51.397Z,21.42
2022-12-17T05:39:37.033Z,22.67
2022-12-17T05:42:22.633Z,19.92
2022-12-17T05:45:08.100Z,19.83
2022-12-17T05:47:54.979Z,20.40
2022-12-17T05:50:40.623Z,21.65
2022-12-17T05:53:26.203Z,20.58
2022-12-17T05:56:12.614Z,20.10
2022-12-17T05:58:58.328Z,21.83
2022-12-17T06:01:43.908Z,22.67
2022-12-17T06:04:30.761Z,23.75
2022-12-17T06:07:16.598Z,22.38
2022-12-17T06:10:01.936Z,22.63
2022-12-17T06:12:47.416Z,22.52
2022-12-17T06:15:33.120Z,21.33
2022-12-17T06:18:18.581Z,20.95
2022-12-17T06:21:05.942Z,22.65
2022-12-17T06:23:51.679Z,22.10
2022-12-17T06:26:37.726Z,22.27
2022-12-17T06:29:23.404Z,21.20
2022-12-17T06:32:08.849Z,24.00
2022-12-17T06:34:54.632Z,20.85
2022-12-17T06:37:41.358Z,21.08
2022-12-17T06:40:28.151Z,20.65
2022-12-17T06:43:14.816Z,21.42
2022-12-17T06:46:00.417Z,21.23
2022-12-17T06:48:45.743Z,22.83
2022-12-17T06:51:31.712Z,26.60
2022-12-17T06:54:18.611Z,35.05
2022-12-17T06:57:04.223Z,35.47
2022-12-17T06:59:49.944Z,35.28
2022-12-17T07:02:35.255Z,38.45
2022-12-17T07:05:20.754Z,26.60
2022-12-17T07:08:06.338Z,32.97
2022-12-17T07:10:53.227Z,24.45
2022-12-17T07:13:40.108Z,22.17
2022-12-17T07:16:26.009Z,20.85
2022-12-17T07:19:11.805Z,24.30
2022-12-17T07:21:57.570Z,32.88
2022-12-17T07:24:45.283Z,30.80
2022-12-17T07:27:32.200Z,36.70
2022-12-17T07:30:17.811Z,28.52
2022-12-17T07:33:03.478Z,28.33
2022-12-17T07:35:49.083Z,31.30
2022-12-17T07:38:34.603Z,30.73
2022-12-17T07:41:20.205Z,28.40
2022-12-17T07:44:09.554Z,29.05
2022-12-17T07:46:56.218Z,28.75
2022-12-17T07:49:41.661Z,30.35
2022-12-17T07:52:35.603Z,29.42
2022-12-17T07:55:21.186Z,27.70
2022-12-17T07:58:06.686Z,27.08
2022-12-17T08:00:53.542Z,31.60
2022-12-17T08:03:39.763Z,28.27
2022-12-17T08:06:25.752Z,33.15
2022-12-17T08:09:11.522Z,31.77
2022-12-17T08:11:57.305Z,32.92
2022-12-17T08:14:42.825Z,31.27
2022-12-17T08:17:29.855Z,34.15
2022-12-17T08:20:15.527Z,37.25
2022-12-17T08:23:01.110Z,26.90
2022-12-17T08:25:46.793Z,31.83
2022-12-17T08:31:38.628Z,28.67
2022-12-17T08:34:25.889Z,32.75
2022-12-17T08:37:11.386Z,30.05
2022-12-17T08:39:57.085Z,29.95
2022-12-17T08:42:42.409Z,24.50
2022-12-17T08:45:28.374Z,28.05
2022-12-17T08:48:21.521Z,24.90
2022-12-17T08:51:08.419Z,28.38
2022-12-17T08:53:53.895Z,27.00
2022-12-17T08:56:39.386Z,24.02
2022-12-17T08:59:25.008Z,25.67
2022-12-17T09:02:10.760Z,25.90
2022-12-17T09:04:56.312Z,24.50
2022-12-17T09:07:43.181Z,22.63
2022-12-17T09:10:28.387Z,24.10
2022-12-17T09:13:13.941Z,21.60
2022-12-17T09:15:59.708Z,25.42
2022-12-17T09:18:45.289Z,23.40
2022-12-17T09:21:33.194Z,22.70
2022-12-17T09:24:20.171Z,23.15
2022-12-17T09:27:05.602Z,23.33
2022-12-17T09:29:51.176Z,23.42
2022-12-17T09:32:36.744Z,22.27
2022-12-17T09:35:22.543Z,21.90
2022-12-17T09:38:10.579Z,22.27
2022-12-17T09:40:58.454Z,22.98
2022-12-17T09:43:53.981Z,23.35
2022-12-17T09:46:46.196Z,24.33
2022-12-17T09:49:36.702Z,24.90
2022-12-17T09:52:33.212Z,23.88
2022-12-17T09:55:19.635Z,27.95
2022-12-17T09:58:07.844Z,22.52
2022-12-17T10:00:57.699Z,23.02
2022-12-17T10:03:48.292Z,24.02
2022-12-17T10:06:37.767Z,17.40
2022-12-17T10:09:30.957Z,22.65
2022-12-17T10:12:21.781Z,25.55
2022-12-17T10:15:08.714Z,25.67
2022-12-17T10:17:54.369Z,24.92
2022-12-17T10:20:45.381Z,26.52
2022-12-17T10:23:41.959Z,25.20
2022-12-17T10:26:27.500Z,21.25
2022-12-17T10:29:23.488Z,23.40
2022-12-17T10:32:10.894Z,21.42
2022-12-17T10:35:01.858Z,23.15
2022-12-17T10:37:53.141Z,19.58
2022-12-17T10:40:44.607Z,22.55
2022-12-17T10:43:47.485Z,21.42
2022-12-17T10:46:42.802Z,23.15
2022-12-17T10:49:33.480Z,21.58
2022-12-17T10:52:25.883Z,22.40
2022-12-17T10:55:17.078Z,22.90
2022-12-17T10:58:03.147Z,21.67
2022-12-17T11:00:50.764Z,24.65
2022-12-17T11:03:49.537Z,21.42
2022-12-17T11:06:42.724Z,20.55
2022-12-17T11:09:37.021Z,21.27
2022-12-17T11:12:30.471Z,19.23
2022-12-17T11:15:21.452Z,19.63
2022-12-17T11:18:11.385Z,19.90
2022-12-17T11:21:04.828Z,22.23
2022-12-17T11:23:54.944Z,21.67
2022-12-17T11:26:42.567Z,21.65
2022-12-17T11:29:31.874Z,23.98
2022-12-17T11:32:37.186Z,25.80
2022-12-17T11:35:30.154Z,24.67
2022-12-17T11:38:24.652Z,27.05
2022-12-17T11:41:15.481Z,26.50
2022-12-17T11:44:07.419Z,24.65
2022-12-17T11:47:02.597Z,25.25
2022-12-17T11:49:56.895Z,26.00
2022-12-17T11:52:48.745Z,24.73
2022-12-17T11:55:41.759Z,23.10
2022-12-17T11:58:32.491Z,28.30
2022-12-17T12:01:26.314Z,27.90
2022-12-17T12:04:23.288Z,27.40
2022-12-17T12:07:19.467Z,28.00
2022-12-17T12:10:11.469Z,27.88
2022-12-17T12:13:06.983Z,25.38
2022-12-17T12:16:04.124Z,25.60
2022-12-17T12:19:00.064Z,27.20
2022-12-17T12:22:01.161Z,24.65
2022-12-17T12:25:00.309Z,26.40
2022-12-17T12:27:54.509Z,26.02
2022-12-17T12:30:41.937Z,25.15
2022-12-17T12:33:42.363Z,25.95
2022-12-17T12:36:30.806Z,25.55
2022-12-17T12:39:19.791Z,26.13
2022-12-17T12:42:11.915Z,23.70
2022-12-17T12:45:06.006Z,23.80
2022-12-17T12:48:01.354Z,23.52
2022-12-17T12:50:55.273Z,22.63
2022-12-17T12:53:44.032Z,21.48
2022-12-17T12:56:52.275Z,21.33
2022-12-17T12:59:46.343Z,21.52
2022-12-17T13:02:45.794Z,24.10
2022-12-17T13:05:35.345Z,22.65
2022-12-17T13:08:17.514Z,22.75
2022-12-17T13:10:45.486Z,22.88
2022-12-17T13:13:25.877Z,22.35
2022-12-17T13:15:57.118Z,24.15
2022-12-17T13:18:28.970Z,23.80
2022-12-17T13:20:59.900Z,23.30
2022-12-17T13:23:32.805Z,27.40
2022-12-17T13:26:20.088Z,25.85
2022-12-17T13:29:13.105Z,28.17
2022-12-17T13:31:51.947Z,27.23
2022-12-17T13:34:26.002Z,27.38
2022-12-17T13:37:02.541Z,27.25
2022-12-17T13:39:40.550Z,26.33
2022-12-17T13:42:19.270Z,29.85
2022-12-17T13:44:48.171Z,30.23
2022-12-17T13:47:22.622Z,30.42
2022-12-17T13:50:31.588Z,31.02
2022-12-17T13:52:42.570Z,30.17
2022-12-17T13:55:19.484Z,32.42
2022-12-17T13:57:48.837Z,33.65
2022-12-17T14:00:23.117Z,32.53
2022-12-17T14:02:51.901Z,32.83
2022-12-17T14:05:27.209Z,34.42
2022-12-17T14:07:55.884Z,34.88
2022-12-17T14:10:26.140Z,33.33
2022-12-17T14:13:04.063Z,34.38
2022-12-17T14:18:00.628Z,32.78
2022-12-17T14:20:31.810Z,32.30
2022-12-17T14:23:04.362Z,34.28
2022-12-17T14:25:37.902Z,33.55
2022-12-17T14:28:07.671Z,32.25
2022-12-17T14:31:02.465Z,32.05
2022-12-17T14:33:29.690Z,31.95
2022-12-17T14:35:59.013Z,33.65
2022-12-17T14:38:38.055Z,32.78
2022-12-17T14:41:27.228Z,34.75
2022-12-17T14:43:59.784Z,33.85
2022-12-17T14:46:29.004Z,34.22
2022-12-17T14:49:03.974Z,32.15
2022-12-17T14:51:34.481Z,34.08
2022-12-17T14:54:24.165Z,34.22
2022-12-17T14:56:55.706Z,34.58
2022-12-17T14:59:31.561Z,36.03
2022-12-17T15:02:03.057Z,34.75
2022-12-17T15:04:32.604Z,37.22
2022-12-17T15:07:00.877Z,35.47
2022-12-17T15:09:28.810Z,35.85
2022-12-17T15:11:58.061Z,36.40
2022-12-17T15:14:25.941Z,36.75
2022-12-17T15:16:55.814Z,36.25
2022-12-17T15:19:23.805Z,40.10
2022-12-17T15:21:51.947Z,36.67
2022-12-17T15:24:21.910Z,38.80
2022-12-17T15:26:50.072Z,38.60
2022-12-17T15:29:19.360Z,34.80
2022-12-17T15:31:47.381Z,37.75
2022-12-17T15:34:15.755Z,38.55
2022-12-17T15:36:43.766Z,37.42
2022-12-17T15:39:12.338Z,36.20
2022-12-17T15:41:57.726Z,35.10
2022-12-17T15:44:27.590Z,37.13
2022-12-17T15:46:55.587Z,37.25
2022-12-17T15:49:23.466Z,39.28
2022-12-17T15:51:51.428Z,40.28
2022-12-17T15:54:19.295Z,35.15
2022-12-17T15:56:53.614Z,38.42
2022-12-17T15:59:21.543Z,36.70
2022-12-17T16:01:51.097Z,37.38
2022-12-17T16:04:24.630Z,34.92
2022-12-17T16:06:53.055Z,39.20
2022-12-17T16:09:24.301Z,36.63
2022-12-17T16:11:54.702Z,37.72
2022-12-17T16:14:22.822Z,35.10
2022-12-17T16:16:53.021Z,36.03
2022-12-17T16:19:20.900Z,39.00
2022-12-17T16:21:49.000Z,36.25
2022-12-17T16:24:16.913Z,36.15
2022-12-17T16:26:44.855Z,35.65
2022-12-17T16:29:12.765Z,36.20
2022-12-17T16:31:40.831Z,31.73
2022-12-17T16:34:11.012Z,35.58
2022-12-17T16:36:39.084Z,36.78
2022-12-17T16:39:07.147Z,34.80
2022-12-17T16:41:35.431Z,33.50
2022-12-17T16:44:03.985Z,35.00
2022-12-17T16:46:34.384Z,32.83
2022-12-17T16:49:06.837Z,34.42
2022-12-17T16:51:36.539Z,36.45
2022-12-17T16:54:09.580Z,38.20
2022-12-17T16:56:40.222Z,45.88
2022-12-17T16:59:09.392Z,46.10
2022-12-17T17:01:38.363Z,40.65
2022-12-17T17:04:08.302Z,39.65
2022-12-17T17:06:40.968Z,38.70
2022-12-17T17:09:09.813Z,37.92
2022-12-17T17:11:38.213Z,38.15
2022-12-17T17:14:07.588Z,37.35
2022-12-17T17:16:35.684Z,34.42
2022-12-17T17:19:04.683Z,40.42
2022-12-17T17:21:34.300Z,41.53
2022-12-17T17:24:06.986Z,42.45
2022-12-17T17:26:36.080Z,36.13
2022-12-17T17:29:05.103Z,36.58
2022-12-17T17:32:08.672Z,35.97
2022-12-17T17:34:21.519Z,40.53
2022-12-17T17:36:49.406Z,41.10
2022-12-17T17:39:18.809Z,41.20
2022-12-17T17:41:46.738Z,43.33
2022-12-17T17:44:16.321Z,39.45
2022-12-17T17:46:44.361Z,36.60
2022-12-17T17:49:12.595Z,36.75
2022-12-17T17:54:32.016Z,36.00
2022-12-17T17:56:59.972Z,36.97
2022-12-17T17:59:33.176Z,40.65
2022-12-17T18:02:02.642Z,38.60
2022-12-17T18:04:30.987Z,37.60
2022-12-17T18:09:48.308Z,36.58
2022-12-17T18:12:33.568Z,37.38
2022-12-17T18:15:18.436Z,35.20
2022-12-17T18:17:48.366Z,39.33
2022-12-17T18:20:17.053Z,41.28
2022-12-17T18:22:46.733Z,39.55
2022-12-17T18:25:16.814Z,38.00
2022-12-17T18:27:44.915Z,35.63
2022-12-17T18:30:13.510Z,36.33
2022-12-17T18:32:41.411Z,36.47
2022-12-17T18:35:10.020Z,35.25
2022-12-17T18:37:38.109Z,36.97
2022-12-17T18:40:07.351Z,37.88
2022-12-17T18:42:54.283Z,37.92
2022-12-17T18:45:22.199Z,38.33
2022-12-17T18:47:51.667Z,38.53
2022-12-17T18:50:19.741Z,35.40
2022-12-17T18:52:47.710Z,35.67
2022-12-17T18:55:16.264Z,39.85
2022-12-17T18:57:45.976Z,39.83
2022-12-17T19:00:15.405Z,41.45
2022-12-17T19:02:44.272Z,39.97
2022-12-17T19:05:12.376Z,43.65
2022-12-17T19:07:40.330Z,42.42
2022-12-17T19:10:09.032Z,44.08
2022-12-17T19:12:36.986Z,43.08
2022-12-17T19:15:07.103Z,40.42
2022-12-17T19:17:35.107Z,38.33
2022-12-17T19:20:03.063Z,40.53
2022-12-17T19:22:31.068Z,38.40
2022-12-17T19:24:59.305Z,38.95
2022-12-17T19:27:28.810Z,40.30
2022-12-17T19:29:57.186Z,41.35
2022-12-17T19:32:26.592Z,39.33
2022-12-17T19:34:54.503Z,37.30
2022-12-17T19:37:22.468Z,38.80
2022-12-17T19:39:50.385Z,38.35
2022-12-17T19:42:25.457Z,41.85
2022-12-17T19:44:54.996Z,34.85
2022-12-17T19:47:23.635Z,34.70
2022-12-17T19:49:52.878Z,31.90
2022-12-17T19:52:20.779Z,33.85
2022-12-17T19:54:48.665Z,41.35
2022-12-17T19:57:16.562Z,36.22
2022-12-17T19:59:44.474Z,35.92
2022-12-17T20:02:12.508Z,38.78
2022-12-17T20:04:40.589Z,40.05
2022-12-17T20:07:09.858Z,40.05
2022-12-17T20:09:37.909Z,40.22
2022-12-17T20:12:06.226Z,39.08
2022-12-17T20:14:35.262Z,38.60
2022-12-17T20:17:05.993Z,38.95
2022-12-17T20:19:34.897Z,41.28
2022-12-17T20:22:05.949Z,39.03
2022-12-17T20:24:37.156Z,38.20
2022-12-17T20:27:05.786Z,36.75
2022-12-17T20:29:33.992Z,35.97
2022-12-17T20:32:03.264Z,37.65
2022-12-17T20:34:31.829Z,37.30
2022-12-17T20:36:59.819Z,35.50
2022-12-17T20:39:28.436Z,39.33
2022-12-17T20:41:58.156Z,40.00
2022-12-17T20:44:26.671Z,37.40
2022-12-17T20:46:54.893Z,36.35
2022-12-17T20:49:22.970Z,34.67
2022-12-17T20:51:51.130Z,35.65
2022-12-17T20:54:19.668Z,37.00
2022-12-17T20:56:47.599Z,40.63
2022-12-17T20:59:18.654Z,44.58
2022-12-17T21:01:52.811Z,41.45
2022-12-17T21:04:24.170Z,41.80
2022-12-17T21:06:52.928Z,35.72
2022-12-17T21:09:22.461Z,36.75
2022-12-17T21:11:50.680Z,37.80
2022-12-17T21:14:20.205Z,35.95
2022-12-17T21:16:48.480Z,40.42
2022-12-17T21:19:18.740Z,46.92
2022-12-17T21:21:47.009Z,46.22
2022-12-17T21:24:15.030Z,48.30
2022-12-17T21:26:45.950Z,48.00
2022-12-17T21:29:14.487Z,45.67
2022-12-17T21:31:46.430Z,43.58
2022-12-17T21:34:17.079Z,42.83
2022-12-17T21:36:46.281Z,40.13
2022-12-17T21:39:16.082Z,40.03
2022-12-17T21:42:05.890Z,37.63
2022-12-17T21:44:33.845Z,38.42
2022-12-17T21:47:03.340Z,35.92
2022-12-17T21:49:31.366Z,38.15
2022-12-17T21:52:00.514Z,37.08
2022-12-17T21:54:28.543Z,38.88
2022-12-17T21:56:56.466Z,38.05
2022-12-17T21:59:24.479Z,37.88
2022-12-17T22:01:53.646Z,40.35
2022-12-17T22:04:23.071Z,33.78
2022-12-17T22:06:55.590Z,34.83
2022-12-17T22:09:31.693Z,39.28
2022-12-17T22:12:32.024Z,40.33
2022-12-17T22:14:59.914Z,47.17
2022-12-17T22:17:28.288Z,48.00
2022-12-17T22:19:57.497Z,47.45
2022-12-17T22:22:25.387Z,47.45
2022-12-17T22:24:53.458Z,44.30
2022-12-17T22:27:21.571Z,47.10
2022-12-17T22:30:06.861Z,47.97
2022-12-17T22:32:52.427Z,47.92
2022-12-17T22:36:02.740Z,47.70
2022-12-17T22:40:52.360Z,49.08
2022-12-17T22:44:37.804Z,46.38
2022-12-17T22:44:44.738Z,44.47
2022-12-17T22:46:42.962Z,48.80
2022-12-17T22:49:11.250Z,48.75
2022-12-17T22:51:41.532Z,44.47
2022-12-17T22:54:12.132Z,44.47
2022-12-17T22:57:04.344Z,48.10
2022-12-17T22:59:31.282Z,45.55
2022-12-17T23:01:59.313Z,44.10
2022-12-17T23:04:27.355Z,42.72
2022-12-17T23:06:56.719Z,48.15
2022-12-17T23:09:24.595Z,46.28
2022-12-17T23:11:52.558Z,45.20
2022-12-17T23:14:20.902Z,51.17
2022-12-17T23:16:48.823Z,45.95
2022-12-17T23:19:16.858Z,46.53
2022-12-17T23:21:44.869Z,44.28
2022-12-17T23:24:14.088Z,46.58
2022-12-17T23:26:41.960Z,43.35
2022-12-17T23:29:19.112Z,44.03
2022-12-17T23:31:48.250Z,43.58
2022-12-17T23:34:16.446Z,45.22
2022-12-17T23:36:44.413Z,41.45
2022-12-17T23:39:13.858Z,42.53
2022-12-17T23:41:41.880Z,39.75
2022-12-17T23:44:09.774Z,41.92
2022-12-17T23:46:37.872Z,42.65
2022-12-17T23:49:06.913Z,42.28
2022-12-17T23:51:35.058Z,40.40
2022-12-17T23:54:03.180Z,41.53
2022-12-17T23:56:32.440Z,40.08
2022-12-17T23:59:01.889Z,38.67
